sensor_id;sensor_type;location;lat;lon;timestamp;P1;durP1;ratioP1;P2;durP2;ratioP2
2896;SDS011;1458;49.728;9.228;2023-11-21T00:01:00;0.30;;;0.30;;
2896;SDS011;1458;49.728;9.228;2023-11-21T00:03:29;0.30;;;0.30;;
2896;SDS011;1458;49.728;9.228;2023-11-21T00:05:56;0.40;;;0.40;;
2896;SDS011;1458;49.728;9.228;2023-11-21T00:08:24;0.30;;;0.30;;
2896;SDS011;1458;49.728;9.228;2023-11-21T00:10:53;0.30;;;0.30;;
2896;SDS011;1458;49.728;9.228;2023-11-21T00:13:21;0.40;;;0.40;;
2896;SDS011;1458;49.728;9.228;2023-11-21T00:15:48;0.30;;;0.30;;
2896;SDS011;1458;49.728;9.228;2023-11-21T00:18:16;0.33;;;0.33;;
2896;SDS011;1458;49.728;9.228;2023-11-21T00:20:43;0.30;;;0.30;;
2896;SDS011;1458;49.728;9.228;2023-11-21T00:23:11;0.30;;;0.30;;
2896;SDS011;1458;49.728;9.228;2023-11-21T00:25:38;0.30;;;0.30;;
2896;SDS011;1458;49.728;9.228;2023-11-21T00:28:07;0.30;;;0.30;;
2896;SDS011;1458;49.728;9.228;2023-11-21T00:30:35;0.30;;;0.30;;
2896;SDS011;1458;49.728;9.228;2023-11-21T00:33:02;0.30;;;0.30;;
2896;SDS011;1458;49.728;9.228;2023-11-21T00:35:30;0.30;;;0.30;;
2896;SDS011;1458;49.728;9.228;2023-11-21T00:37:57;0.30;;;0.30;;
2896;SDS011;1458;49.728;9.228;2023-11-21T00:40:25;0.30;;;0.30;;
2896;SDS011;1458;49.728;9.228;2023-11-21T00:42:52;0.30;;;0.30;;
2896;SDS011;1458;49.728;9.228;2023-11-21T00:45:22;0.30;;;0.30;;
2896;SDS011;1458;49.728;9.228;2023-11-21T00:47:50;0.30;;;0.30;;
2896;SDS011;1458;49.728;9.228;2023-11-21T00:50:17;0.30;;;0.30;;
2896;SDS011;1458;49.728;9.228;2023-11-21T00:52:45;0.30;;;0.30;;
2896;SDS011;1458;49.728;9.228;2023-11-21T00:55:12;0.30;;;0.30;;
2896;SDS011;1458;49.728;9.228;2023-11-21T00:57:40;0.30;;;0.30;;
2896;SDS011;1458;49.728;9.228;2023-11-21T01:00:08;0.40;;;0.40;;
2896;SDS011;1458;49.728;9.228;2023-11-21T01:02:40;0.30;;;0.30;;
2896;SDS011;1458;49.728;9.228;2023-11-21T01:05:08;0.30;;;0.30;;
2896;SDS011;1458;49.728;9.228;2023-11-21T01:07:36;0.30;;;0.30;;
2896;SDS011;1458;49.728;9.228;2023-11-21T01:10:03;0.30;;;0.30;;
2896;SDS011;1458;49.728;9.228;2023-11-21T01:12:33;0.30;;;0.30;;
2896;SDS011;1458;49.728;9.228;2023-11-21T01:15:01;0.30;;;0.30;;
2896;SDS011;1458;49.728;9.228;2023-11-21T01:17:29;0.40;;;0.40;;
2896;SDS011;1458;49.728;9.228;2023-11-21T01:19:58;0.30;;;0.30;;
2896;SDS011;1458;49.728;9.228;2023-11-21T01:22:26;0.30;;;0.30;;
2896;SDS011;1458;49.728;9.228;2023-11-21T01:24:54;0.30;;;0.30;;
2896;SDS011;1458;49.728;9.228;2023-11-21T01:27:21;0.30;;;0.30;;
2896;SDS011;1458;49.728;9.228;2023-11-21T01:29:48;0.30;;;0.30;;
2896;SDS011;1458;49.728;9.228;2023-11-21T01:32:18;0.30;;;0.30;;
2896;SDS011;1458;49.728;9.228;2023-11-21T01:34:47;0.30;;;0.30;;
2896;SDS011;1458;49.728;9.228;2023-11-21T01:37:18;0.40;;;0.40;;
2896;SDS011;1458;49.728;9.228;2023-11-21T01:39:46;0.30;;;0.30;;
2896;SDS011;1458;49.728;9.228;2023-11-21T01:42:14;0.30;;;0.30;;
2896;SDS011;1458;49.728;9.228;2023-11-21T01:44:41;0.30;;;0.30;;
2896;SDS011;1458;49.728;9.228;2023-11-21T01:47:09;0.30;;;0.30;;
2896;SDS011;1458;49.728;9.228;2023-11-21T01:49:37;0.33;;;0.33;;
2896;SDS011;1458;49.728;9.228;2023-11-21T01:52:05;0.30;;;0.30;;
2896;SDS011;1458;49.728;9.228;2023-11-21T01:54:35;0.30;;;0.30;;
2896;SDS011;1458;49.728;9.228;2023-11-21T01:57:02;0.30;;;0.30;;
2896;SDS011;1458;49.728;9.228;2023-11-21T01:59:33;0.30;;;0.30;;
2896;SDS011;1458;49.728;9.228;2023-11-21T02:02:03;0.30;;;0.30;;
2896;SDS011;1458;49.728;9.228;2023-11-21T02:04:32;0.30;;;0.30;;
2896;SDS011;1458;49.728;9.228;2023-11-21T02:07:01;0.30;;;0.30;;
2896;SDS011;1458;49.728;9.228;2023-11-21T02:09:30;0.30;;;0.30;;
2896;SDS011;1458;49.728;9.228;2023-11-21T02:12:00;0.30;;;0.30;;
2896;SDS011;1458;49.728;9.228;2023-11-21T02:14:29;0.30;;;0.30;;
2896;SDS011;1458;49.728;9.228;2023-11-21T02:16:57;0.30;;;0.30;;
2896;SDS011;1458;49.728;9.228;2023-11-21T02:19:26;0.50;;;0.50;;
2896;SDS011;1458;49.728;9.228;2023-11-21T02:21:56;0.27;;;0.27;;
2896;SDS011;1458;49.728;9.228;2023-11-21T02:24:30;0.30;;;0.30;;
2896;SDS011;1458;49.728;9.228;2023-11-21T02:26:58;0.30;;;0.30;;
2896;SDS011;1458;49.728;9.228;2023-11-21T02:29:25;0.30;;;0.30;;
2896;SDS011;1458;49.728;9.228;2023-11-21T02:31:54;0.30;;;0.30;;
2896;SDS011;1458;49.728;9.228;2023-11-21T02:34:22;0.30;;;0.30;;
2896;SDS011;1458;49.728;9.228;2023-11-21T02:36:50;0.30;;;0.30;;
2896;SDS011;1458;49.728;9.228;2023-11-21T02:39:17;0.30;;;0.30;;
2896;SDS011;1458;49.728;9.228;2023-11-21T02:41:48;0.40;;;0.40;;
2896;SDS011;1458;49.728;9.228;2023-11-21T02:44:16;0.30;;;0.30;;
2896;SDS011;1458;49.728;9.228;2023-11-21T02:46:43;0.47;;;0.47;;
2896;SDS011;1458;49.728;9.228;2023-11-21T02:49:12;0.30;;;0.30;;
2896;SDS011;1458;49.728;9.228;2023-11-21T02:51:39;0.30;;;0.30;;
2896;SDS011;1458;49.728;9.228;2023-11-21T02:54:07;0.30;;;0.30;;
2896;SDS011;1458;49.728;9.228;2023-11-21T02:56:35;0.30;;;0.30;;
2896;SDS011;1458;49.728;9.228;2023-11-21T02:59:04;0.47;;;0.47;;
2896;SDS011;1458;49.728;9.228;2023-11-21T03:01:32;0.30;;;0.30;;
2896;SDS011;1458;49.728;9.228;2023-11-21T03:03:59;0.30;;;0.30;;
2896;SDS011;1458;49.728;9.228;2023-11-21T03:06:26;0.30;;;0.30;;
2896;SDS011;1458;49.728;9.228;2023-11-21T03:08:54;0.30;;;0.30;;
2896;SDS011;1458;49.728;9.228;2023-11-21T03:11:21;0.30;;;0.30;;
2896;SDS011;1458;49.728;9.228;2023-11-21T03:13:49;0.30;;;0.30;;
2896;SDS011;1458;49.728;9.228;2023-11-21T03:16:18;0.33;;;0.33;;
2896;SDS011;1458;49.728;9.228;2023-11-21T03:18:45;0.40;;;0.40;;
2896;SDS011;1458;49.728;9.228;2023-11-21T03:21:13;0.30;;;0.30;;
2896;SDS011;1458;49.728;9.228;2023-11-21T03:23:40;0.30;;;0.30;;
2896;SDS011;1458;49.728;9.228;2023-11-21T03:26:11;0.40;;;0.40;;
2896;SDS011;1458;49.728;9.228;2023-11-21T03:28:39;0.30;;;0.30;;
2896;SDS011;1458;49.728;9.228;2023-11-21T03:31:06;0.30;;;0.30;;
2896;SDS011;1458;49.728;9.228;2023-11-21T03:33:36;0.30;;;0.30;;
2896;SDS011;1458;49.728;9.228;2023-11-21T03:36:03;0.30;;;0.30;;
2896;SDS011;1458;49.728;9.228;2023-11-21T03:38:33;0.30;;;0.30;;
2896;SDS011;1458;49.728;9.228;2023-11-21T03:41:03;0.40;;;0.40;;
2896;SDS011;1458;49.728;9.228;2023-11-21T03:43:31;0.30;;;0.30;;
2896;SDS011;1458;49.728;9.228;2023-11-21T03:45:58;0.30;;;0.30;;
2896;SDS011;1458;49.728;9.228;2023-11-21T03:48:26;0.30;;;0.30;;
2896;SDS011;1458;49.728;9.228;2023-11-21T03:50:55;0.30;;;0.30;;
2896;SDS011;1458;49.728;9.228;2023-11-21T03:53:22;0.30;;;0.30;;
2896;SDS011;1458;49.728;9.228;2023-11-21T03:55:49;0.20;;;0.20;;
2896;SDS011;1458;49.728;9.228;2023-11-21T03:58:16;0.33;;;0.33;;
2896;SDS011;1458;49.728;9.228;2023-11-21T04:00:44;0.30;;;0.30;;
2896;SDS011;1458;49.728;9.228;2023-11-21T04:03:12;0.30;;;0.30;;
2896;SDS011;1458;49.728;9.228;2023-11-21T04:05:40;0.30;;;0.30;;
2896;SDS011;1458;49.728;9.228;2023-11-21T04:08:09;0.30;;;0.30;;
2896;SDS011;1458;49.728;9.228;2023-11-21T04:10:36;0.40;;;0.40;;
2896;SDS011;1458;49.728;9.228;2023-11-21T04:13:05;0.30;;;0.30;;
2896;SDS011;1458;49.728;9.228;2023-11-21T04:15:32;0.30;;;0.30;;
2896;SDS011;1458;49.728;9.228;2023-11-21T04:18:00;0.30;;;0.30;;
2896;SDS011;1458;49.728;9.228;2023-11-21T04:20:27;0.30;;;0.30;;
2896;SDS011;1458;49.728;9.228;2023-11-21T04:22:55;0.30;;;0.30;;
2896;SDS011;1458;49.728;9.228;2023-11-21T04:25:23;0.30;;;0.30;;
2896;SDS011;1458;49.728;9.228;2023-11-21T04:27:51;0.30;;;0.30;;
2896;SDS011;1458;49.728;9.228;2023-11-21T04:30:19;0.30;;;0.30;;
2896;SDS011;1458;49.728;9.228;2023-11-21T04:32:46;0.30;;;0.30;;
2896;SDS011;1458;49.728;9.228;2023-11-21T04:35:14;0.30;;;0.30;;
2896;SDS011;1458;49.728;9.228;2023-11-21T04:37:41;0.40;;;0.40;;
2896;SDS011;1458;49.728;9.228;2023-11-21T04:40:09;0.30;;;0.30;;
2896;SDS011;1458;49.728;9.228;2023-11-21T04:42:39;0.30;;;0.30;;
2896;SDS011;1458;49.728;9.228;2023-11-21T04:45:07;0.30;;;0.30;;
2896;SDS011;1458;49.728;9.228;2023-11-21T04:47:36;0.30;;;0.30;;
2896;SDS011;1458;49.728;9.228;2023-11-21T04:50:04;0.30;;;0.30;;
2896;SDS011;1458;49.728;9.228;2023-11-21T04:52:32;0.30;;;0.30;;
2896;SDS011;1458;49.728;9.228;2023-11-21T04:55:00;0.40;;;0.40;;
2896;SDS011;1458;49.728;9.228;2023-11-21T04:57:27;0.30;;;0.30;;
2896;SDS011;1458;49.728;9.228;2023-11-21T04:59:57;0.33;;;0.33;;
2896;SDS011;1458;49.728;9.228;2023-11-21T05:02:24;0.40;;;0.40;;
2896;SDS011;1458;49.728;9.228;2023-11-21T05:04:52;0.23;;;0.23;;
2896;SDS011;1458;49.728;9.228;2023-11-21T05:07:21;0.30;;;0.30;;
2896;SDS011;1458;49.728;9.228;2023-11-21T05:09:49;0.30;;;0.30;;
2896;SDS011;1458;49.728;9.228;2023-11-21T05:12:16;0.40;;;0.40;;
2896;SDS011;1458;49.728;9.228;2023-11-21T05:14:43;0.30;;;0.30;;
2896;SDS011;1458;49.728;9.228;2023-11-21T05:17:13;0.20;;;0.20;;
2896;SDS011;1458;49.728;9.228;2023-11-21T05:19:40;0.30;;;0.30;;
2896;SDS011;1458;49.728;9.228;2023-11-21T05:22:08;0.30;;;0.30;;
2896;SDS011;1458;49.728;9.228;2023-11-21T05:24:37;0.33;;;0.33;;
2896;SDS011;1458;49.728;9.228;2023-11-21T05:27:05;0.30;;;0.30;;
2896;SDS011;1458;49.728;9.228;2023-11-21T05:29:34;0.30;;;0.30;;
2896;SDS011;1458;49.728;9.228;2023-11-21T05:32:03;0.30;;;0.30;;
2896;SDS011;1458;49.728;9.228;2023-11-21T05:34:32;0.20;;;0.20;;
2896;SDS011;1458;49.728;9.228;2023-11-21T05:36:59;0.40;;;0.40;;
2896;SDS011;1458;49.728;9.228;2023-11-21T05:39:27;0.30;;;0.30;;
2896;SDS011;1458;49.728;9.228;2023-11-21T05:41:54;0.40;;;0.40;;
2896;SDS011;1458;49.728;9.228;2023-11-21T05:44:22;0.30;;;0.30;;
2896;SDS011;1458;49.728;9.228;2023-11-21T05:46:50;0.30;;;0.30;;
2896;SDS011;1458;49.728;9.228;2023-11-21T05:49:18;0.47;;;0.47;;
2896;SDS011;1458;49.728;9.228;2023-11-21T05:51:48;0.30;;;0.30;;
2896;SDS011;1458;49.728;9.228;2023-11-21T05:54:15;0.37;;;0.37;;
2896;SDS011;1458;49.728;9.228;2023-11-21T05:56:43;0.37;;;0.37;;
2896;SDS011;1458;49.728;9.228;2023-11-21T05:59:10;0.30;;;0.30;;
2896;SDS011;1458;49.728;9.228;2023-11-21T06:01:37;0.30;;;0.30;;
2896;SDS011;1458;49.728;9.228;2023-11-21T06:04:05;0.30;;;0.30;;
2896;SDS011;1458;49.728;9.228;2023-11-21T06:06:34;0.30;;;0.30;;
2896;SDS011;1458;49.728;9.228;2023-11-21T06:09:03;0.30;;;0.30;;
2896;SDS011;1458;49.728;9.228;2023-11-21T06:11:33;0.30;;;0.30;;
2896;SDS011;1458;49.728;9.228;2023-11-21T06:14:01;0.30;;;0.30;;
2896;SDS011;1458;49.728;9.228;2023-11-21T06:16:29;0.20;;;0.20;;
2896;SDS011;1458;49.728;9.228;2023-11-21T06:18:56;0.30;;;0.30;;
2896;SDS011;1458;49.728;9.228;2023-11-21T06:21:23;0.30;;;0.30;;
2896;SDS011;1458;49.728;9.228;2023-11-21T06:23:51;0.30;;;0.30;;
2896;SDS011;1458;49.728;9.228;2023-11-21T06:26:20;0.40;;;0.40;;
2896;SDS011;1458;49.728;9.228;2023-11-21T06:28:48;0.30;;;0.30;;
2896;SDS011;1458;49.728;9.228;2023-11-21T06:31:16;0.30;;;0.30;;
2896;SDS011;1458;49.728;9.228;2023-11-21T06:33:43;0.30;;;0.30;;
2896;SDS011;1458;49.728;9.228;2023-11-21T06:36:11;0.27;;;0.27;;
2896;SDS011;1458;49.728;9.228;2023-11-21T06:38:39;0.30;;;0.30;;
2896;SDS011;1458;49.728;9.228;2023-11-21T06:41:06;0.20;;;0.20;;
2896;SDS011;1458;49.728;9.228;2023-11-21T06:43:35;0.30;;;0.30;;
2896;SDS011;1458;49.728;9.228;2023-11-21T06:46:02;0.30;;;0.30;;
2896;SDS011;1458;49.728;9.228;2023-11-21T06:48:30;0.30;;;0.30;;
2896;SDS011;1458;49.728;9.228;2023-11-21T06:50:58;0.27;;;0.27;;
2896;SDS011;1458;49.728;9.228;2023-11-21T06:53:25;0.30;;;0.30;;
2896;SDS011;1458;49.728;9.228;2023-11-21T06:55:52;0.23;;;0.23;;
2896;SDS011;1458;49.728;9.228;2023-11-21T06:58:20;0.30;;;0.30;;
2896;SDS011;1458;49.728;9.228;2023-11-21T07:00:49;0.20;;;0.20;;
2896;SDS011;1458;49.728;9.228;2023-11-21T07:03:17;0.30;;;0.30;;
2896;SDS011;1458;49.728;9.228;2023-11-21T07:05:45;0.30;;;0.30;;
2896;SDS011;1458;49.728;9.228;2023-11-21T07:08:12;0.20;;;0.20;;
2896;SDS011;1458;49.728;9.228;2023-11-21T07:10:40;0.30;;;0.30;;
2896;SDS011;1458;49.728;9.228;2023-11-21T07:13:07;0.30;;;0.30;;
2896;SDS011;1458;49.728;9.228;2023-11-21T07:15:37;0.30;;;0.30;;
2896;SDS011;1458;49.728;9.228;2023-11-21T07:18:06;0.30;;;0.30;;
2896;SDS011;1458;49.728;9.228;2023-11-21T07:20:33;0.30;;;0.30;;
2896;SDS011;1458;49.728;9.228;2023-11-21T07:23:01;0.30;;;0.30;;
2896;SDS011;1458;49.728;9.228;2023-11-21T07:25:30;0.30;;;0.30;;
2896;SDS011;1458;49.728;9.228;2023-11-21T07:27:58;0.30;;;0.30;;
2896;SDS011;1458;49.728;9.228;2023-11-21T07:30:26;0.30;;;0.30;;
2896;SDS011;1458;49.728;9.228;2023-11-21T07:32:53;0.30;;;0.30;;
2896;SDS011;1458;49.728;9.228;2023-11-21T07:35:22;0.30;;;0.30;;
2896;SDS011;1458;49.728;9.228;2023-11-21T07:37:49;0.30;;;0.30;;
2896;SDS011;1458;49.728;9.228;2023-11-21T07:40:17;0.30;;;0.30;;
2896;SDS011;1458;49.728;9.228;2023-11-21T07:42:44;0.30;;;0.30;;
2896;SDS011;1458;49.728;9.228;2023-11-21T07:45:12;0.33;;;0.33;;
2896;SDS011;1458;49.728;9.228;2023-11-21T07:47:40;0.30;;;0.30;;
2896;SDS011;1458;49.728;9.228;2023-11-21T07:50:08;0.30;;;0.30;;
2896;SDS011;1458;49.728;9.228;2023-11-21T07:52:37;0.27;;;0.27;;
2896;SDS011;1458;49.728;9.228;2023-11-21T07:55:05;0.30;;;0.30;;
2896;SDS011;1458;49.728;9.228;2023-11-21T07:57:33;0.30;;;0.30;;
2896;SDS011;1458;49.728;9.228;2023-11-21T08:00:01;0.20;;;0.20;;
2896;SDS011;1458;49.728;9.228;2023-11-21T08:02:37;0.30;;;0.30;;
2896;SDS011;1458;49.728;9.228;2023-11-21T08:05:07;0.30;;;0.30;;
2896;SDS011;1458;49.728;9.228;2023-11-21T08:07:36;0.30;;;0.30;;
2896;SDS011;1458;49.728;9.228;2023-11-21T08:10:05;0.30;;;0.30;;
2896;SDS011;1458;49.728;9.228;2023-11-21T08:12:35;0.30;;;0.30;;
2896;SDS011;1458;49.728;9.228;2023-11-21T08:15:04;0.30;;;0.30;;
2896;SDS011;1458;49.728;9.228;2023-11-21T08:17:34;0.20;;;0.20;;
2896;SDS011;1458;49.728;9.228;2023-11-21T08:20:02;0.30;;;0.30;;
2896;SDS011;1458;49.728;9.228;2023-11-21T08:22:30;0.30;;;0.30;;
2896;SDS011;1458;49.728;9.228;2023-11-21T08:24:59;0.20;;;0.20;;
2896;SDS011;1458;49.728;9.228;2023-11-21T08:27:26;0.30;;;0.30;;
2896;SDS011;1458;49.728;9.228;2023-11-21T08:29:53;0.33;;;0.33;;
2896;SDS011;1458;49.728;9.228;2023-11-21T08:32:22;0.30;;;0.30;;
2896;SDS011;1458;49.728;9.228;2023-11-21T08:34:50;0.30;;;0.30;;
2896;SDS011;1458;49.728;9.228;2023-11-21T08:37:17;0.30;;;0.30;;
2896;SDS011;1458;49.728;9.228;2023-11-21T08:39:46;0.30;;;0.30;;
2896;SDS011;1458;49.728;9.228;2023-11-21T08:42:16;0.30;;;0.30;;
2896;SDS011;1458;49.728;9.228;2023-11-21T08:44:43;0.30;;;0.30;;
2896;SDS011;1458;49.728;9.228;2023-11-21T08:47:11;0.30;;;0.30;;
2896;SDS011;1458;49.728;9.228;2023-11-21T08:49:39;0.30;;;0.30;;
2896;SDS011;1458;49.728;9.228;2023-11-21T08:52:07;0.30;;;0.30;;
2896;SDS011;1458;49.728;9.228;2023-11-21T08:54:35;0.30;;;0.30;;
2896;SDS011;1458;49.728;9.228;2023-11-21T08:57:02;0.30;;;0.30;;
2896;SDS011;1458;49.728;9.228;2023-11-21T08:59:32;0.30;;;0.30;;
2896;SDS011;1458;49.728;9.228;2023-11-21T09:01:59;0.40;;;0.40;;
2896;SDS011;1458;49.728;9.228;2023-11-21T09:04:27;0.30;;;0.30;;
2896;SDS011;1458;49.728;9.228;2023-11-21T09:06:54;0.30;;;0.30;;
2896;SDS011;1458;49.728;9.228;2023-11-21T09:09:21;0.40;;;0.40;;
2896;SDS011;1458;49.728;9.228;2023-11-21T09:11:49;0.40;;;0.40;;
2896;SDS011;1458;49.728;9.228;2023-11-21T09:14:17;0.30;;;0.30;;
2896;SDS011;1458;49.728;9.228;2023-11-21T09:16:46;0.40;;;0.40;;
2896;SDS011;1458;49.728;9.228;2023-11-21T09:19:15;0.40;;;0.40;;
2896;SDS011;1458;49.728;9.228;2023-11-21T09:21:43;0.40;;;0.40;;
2896;SDS011;1458;49.728;9.228;2023-11-21T09:24:10;0.30;;;0.30;;
2896;SDS011;1458;49.728;9.228;2023-11-21T09:26:38;0.37;;;0.37;;
2896;SDS011;1458;49.728;9.228;2023-11-21T09:29:05;0.30;;;0.30;;
2896;SDS011;1458;49.728;9.228;2023-11-21T09:31:33;0.30;;;0.30;;
2896;SDS011;1458;49.728;9.228;2023-11-21T09:34:02;0.30;;;0.30;;
2896;SDS011;1458;49.728;9.228;2023-11-21T09:36:31;0.30;;;0.30;;
2896;SDS011;1458;49.728;9.228;2023-11-21T09:38:59;0.30;;;0.30;;
2896;SDS011;1458;49.728;9.228;2023-11-21T09:41:30;0.40;;;0.40;;
2896;SDS011;1458;49.728;9.228;2023-11-21T09:44:05;0.30;;;0.30;;
2896;SDS011;1458;49.728;9.228;2023-11-21T09:46:39;0.30;;;0.30;;
2896;SDS011;1458;49.728;9.228;2023-11-21T09:49:10;0.30;;;0.30;;
2896;SDS011;1458;49.728;9.228;2023-11-21T09:51:39;0.30;;;0.30;;
2896;SDS011;1458;49.728;9.228;2023-11-21T09:54:09;0.30;;;0.30;;
2896;SDS011;1458;49.728;9.228;2023-11-21T09:56:38;0.30;;;0.30;;
2896;SDS011;1458;49.728;9.228;2023-11-21T09:59:05;0.30;;;0.30;;
2896;SDS011;1458;49.728;9.228;2023-11-21T10:01:36;0.30;;;0.30;;
2896;SDS011;1458;49.728;9.228;2023-11-21T10:04:04;0.37;;;0.37;;
2896;SDS011;1458;49.728;9.228;2023-11-21T10:06:38;0.40;;;0.40;;
2896;SDS011;1458;49.728;9.228;2023-11-21T10:09:08;0.40;;;0.40;;
2896;SDS011;1458;49.728;9.228;2023-11-21T10:11:38;0.40;;;0.40;;
2896;SDS011;1458;49.728;9.228;2023-11-21T10:14:10;0.40;;;0.40;;
2896;SDS011;1458;49.728;9.228;2023-11-21T10:16:40;0.50;;;0.50;;
2896;SDS011;1458;49.728;9.228;2023-11-21T10:19:09;0.30;;;0.30;;
2896;SDS011;1458;49.728;9.228;2023-11-21T10:21:40;0.30;;;0.30;;
2896;SDS011;1458;49.728;9.228;2023-11-21T10:24:08;0.30;;;0.30;;
2896;SDS011;1458;49.728;9.228;2023-11-21T10:26:37;0.30;;;0.30;;
2896;SDS011;1458;49.728;9.228;2023-11-21T10:29:05;0.30;;;0.30;;
2896;SDS011;1458;49.728;9.228;2023-11-21T10:31:33;0.30;;;0.30;;
2896;SDS011;1458;49.728;9.228;2023-11-21T10:34:12;0.30;;;0.30;;
2896;SDS011;1458;49.728;9.228;2023-11-21T10:36:42;0.40;;;0.40;;
2896;SDS011;1458;49.728;9.228;2023-11-21T10:39:09;0.30;;;0.30;;
2896;SDS011;1458;49.728;9.228;2023-11-21T10:41:44;0.30;;;0.30;;
2896;SDS011;1458;49.728;9.228;2023-11-21T10:44:13;0.33;;;0.33;;
2896;SDS011;1458;49.728;9.228;2023-11-21T10:46:45;0.47;;;0.47;;
2896;SDS011;1458;49.728;9.228;2023-11-21T10:49:16;0.30;;;0.30;;
2896;SDS011;1458;49.728;9.228;2023-11-21T10:51:45;0.30;;;0.30;;
2896;SDS011;1458;49.728;9.228;2023-11-21T10:54:16;0.27;;;0.27;;
2896;SDS011;1458;49.728;9.228;2023-11-21T10:56:45;0.30;;;0.30;;
2896;SDS011;1458;49.728;9.228;2023-11-21T10:59:16;0.30;;;0.30;;
2896;SDS011;1458;49.728;9.228;2023-11-21T11:01:46;0.30;;;0.30;;
2896;SDS011;1458;49.728;9.228;2023-11-21T11:04:18;0.30;;;0.30;;
2896;SDS011;1458;49.728;9.228;2023-11-21T11:06:50;0.30;;;0.30;;
2896;SDS011;1458;49.728;9.228;2023-11-21T11:09:21;0.30;;;0.30;;
2896;SDS011;1458;49.728;9.228;2023-11-21T11:11:49;0.30;;;0.30;;
2896;SDS011;1458;49.728;9.228;2023-11-21T11:14:18;0.30;;;0.30;;
2896;SDS011;1458;49.728;9.228;2023-11-21T11:16:50;0.30;;;0.30;;
2896;SDS011;1458;49.728;9.228;2023-11-21T11:19:21;0.30;;;0.30;;
2896;SDS011;1458;49.728;9.228;2023-11-21T11:21:52;0.30;;;0.30;;
2896;SDS011;1458;49.728;9.228;2023-11-21T11:24:44;0.30;;;0.30;;
2896;SDS011;1458;49.728;9.228;2023-11-21T11:27:44;0.30;;;0.30;;
2896;SDS011;1458;49.728;9.228;2023-11-21T11:30:25;0.30;;;0.30;;
2896;SDS011;1458;49.728;9.228;2023-11-21T11:33:08;0.30;;;0.30;;
2896;SDS011;1458;49.728;9.228;2023-11-21T11:35:50;0.30;;;0.30;;
2896;SDS011;1458;49.728;9.228;2023-11-21T11:38:25;0.30;;;0.30;;
2896;SDS011;1458;49.728;9.228;2023-11-21T11:40:58;0.40;;;0.40;;
2896;SDS011;1458;49.728;9.228;2023-11-21T11:43:29;0.30;;;0.30;;
2896;SDS011;1458;49.728;9.228;2023-11-21T11:45:58;0.40;;;0.40;;
2896;SDS011;1458;49.728;9.228;2023-11-21T11:48:28;0.60;;;0.60;;
2896;SDS011;1458;49.728;9.228;2023-11-21T11:51:03;0.33;;;0.33;;
2896;SDS011;1458;49.728;9.228;2023-11-21T11:53:39;0.40;;;0.40;;
2896;SDS011;1458;49.728;9.228;2023-11-21T11:56:24;0.40;;;0.40;;
2896;SDS011;1458;49.728;9.228;2023-11-21T11:58:54;0.40;;;0.40;;
2896;SDS011;1458;49.728;9.228;2023-11-21T12:01:24;0.53;;;0.53;;
2896;SDS011;1458;49.728;9.228;2023-11-21T12:06:56;0.50;;;0.50;;
2896;SDS011;1458;49.728;9.228;2023-11-21T12:09:32;0.50;;;0.50;;
2896;SDS011;1458;49.728;9.228;2023-11-21T12:12:01;0.40;;;0.40;;
2896;SDS011;1458;49.728;9.228;2023-11-21T12:14:30;0.40;;;0.40;;
2896;SDS011;1458;49.728;9.228;2023-11-21T12:16:58;0.50;;;0.50;;
2896;SDS011;1458;49.728;9.228;2023-11-21T12:19:25;0.50;;;0.50;;
2896;SDS011;1458;49.728;9.228;2023-11-21T12:21:53;0.40;;;0.40;;
2896;SDS011;1458;49.728;9.228;2023-11-21T12:24:21;0.50;;;0.50;;
2896;SDS011;1458;49.728;9.228;2023-11-21T12:26:50;0.53;;;0.53;;
2896;SDS011;1458;49.728;9.228;2023-11-21T12:29:18;0.40;;;0.40;;
2896;SDS011;1458;49.728;9.228;2023-11-21T12:31:46;0.60;;;0.60;;
2896;SDS011;1458;49.728;9.228;2023-11-21T12:34:16;0.40;;;0.40;;
2896;SDS011;1458;49.728;9.228;2023-11-21T12:36:44;0.40;;;0.40;;
2896;SDS011;1458;49.728;9.228;2023-11-21T12:39:13;0.40;;;0.40;;
2896;SDS011;1458;49.728;9.228;2023-11-21T12:41:40;0.40;;;0.40;;
2896;SDS011;1458;49.728;9.228;2023-11-21T12:44:11;0.50;;;0.50;;
2896;SDS011;1458;49.728;9.228;2023-11-21T12:46:41;0.50;;;0.50;;
2896;SDS011;1458;49.728;9.228;2023-11-21T12:49:10;0.50;;;0.50;;
2896;SDS011;1458;49.728;9.228;2023-11-21T12:51:42;0.43;;;0.43;;
2896;SDS011;1458;49.728;9.228;2023-11-21T12:54:12;0.50;;;0.50;;
2896;SDS011;1458;49.728;9.228;2023-11-21T12:56:40;0.57;;;0.57;;
2896;SDS011;1458;49.728;9.228;2023-11-21T12:59:08;0.50;;;0.50;;
2896;SDS011;1458;49.728;9.228;2023-11-21T13:01:42;0.70;;;0.70;;
2896;SDS011;1458;49.728;9.228;2023-11-21T13:04:10;0.50;;;0.50;;
2896;SDS011;1458;49.728;9.228;2023-11-21T13:06:37;0.70;;;0.70;;
2896;SDS011;1458;49.728;9.228;2023-11-21T13:09:06;0.50;;;0.50;;
2896;SDS011;1458;49.728;9.228;2023-11-21T13:11:36;0.70;;;0.70;;
2896;SDS011;1458;49.728;9.228;2023-11-21T13:14:06;0.50;;;0.50;;
2896;SDS011;1458;49.728;9.228;2023-11-21T13:16:35;0.80;;;0.80;;
2896;SDS011;1458;49.728;9.228;2023-11-21T13:19:05;0.67;;;0.67;;
2896;SDS011;1458;49.728;9.228;2023-11-21T13:21:34;0.67;;;0.67;;
2896;SDS011;1458;49.728;9.228;2023-11-21T13:24:01;0.63;;;0.63;;
2896;SDS011;1458;49.728;9.228;2023-11-21T13:26:29;0.80;;;0.80;;
2896;SDS011;1458;49.728;9.228;2023-11-21T13:28:58;0.50;;;0.50;;
2896;SDS011;1458;49.728;9.228;2023-11-21T13:31:25;0.60;;;0.60;;
2896;SDS011;1458;49.728;9.228;2023-11-21T13:33:56;0.50;;;0.50;;
2896;SDS011;1458;49.728;9.228;2023-11-21T13:36:31;0.50;;;0.50;;
2896;SDS011;1458;49.728;9.228;2023-11-21T13:39:00;0.60;;;0.60;;
2896;SDS011;1458;49.728;9.228;2023-11-21T13:41:32;0.60;;;0.60;;
2896;SDS011;1458;49.728;9.228;2023-11-21T13:44:00;0.60;;;0.60;;
2896;SDS011;1458;49.728;9.228;2023-11-21T13:46:40;0.50;;;0.50;;
2896;SDS011;1458;49.728;9.228;2023-11-21T13:49:08;0.50;;;0.50;;
2896;SDS011;1458;49.728;9.228;2023-11-21T13:51:37;0.50;;;0.50;;
2896;SDS011;1458;49.728;9.228;2023-11-21T13:54:08;0.50;;;0.50;;
2896;SDS011;1458;49.728;9.228;2023-11-21T13:56:35;0.50;;;0.50;;
2896;SDS011;1458;49.728;9.228;2023-11-21T13:59:05;0.60;;;0.60;;
2896;SDS011;1458;49.728;9.228;2023-11-21T14:01:43;0.50;;;0.50;;
2896;SDS011;1458;49.728;9.228;2023-11-21T14:04:21;0.60;;;0.60;;
2896;SDS011;1458;49.728;9.228;2023-11-21T14:07:05;0.50;;;0.50;;
2896;SDS011;1458;49.728;9.228;2023-11-21T14:09:47;0.50;;;0.50;;
2896;SDS011;1458;49.728;9.228;2023-11-21T14:12:15;0.67;;;0.67;;
2896;SDS011;1458;49.728;9.228;2023-11-21T14:14:43;0.50;;;0.50;;
2896;SDS011;1458;49.728;9.228;2023-11-21T14:17:12;0.50;;;0.50;;
2896;SDS011;1458;49.728;9.228;2023-11-21T14:19:40;0.60;;;0.60;;
2896;SDS011;1458;49.728;9.228;2023-11-21T14:22:10;0.50;;;0.50;;
2896;SDS011;1458;49.728;9.228;2023-11-21T14:24:38;0.60;;;0.60;;
2896;SDS011;1458;49.728;9.228;2023-11-21T14:27:09;0.50;;;0.50;;
2896;SDS011;1458;49.728;9.228;2023-11-21T14:29:37;0.53;;;0.53;;
2896;SDS011;1458;49.728;9.228;2023-11-21T14:32:08;0.40;;;0.40;;
2896;SDS011;1458;49.728;9.228;2023-11-21T14:34:36;0.40;;;0.40;;
2896;SDS011;1458;49.728;9.228;2023-11-21T14:37:03;0.57;;;0.57;;
2896;SDS011;1458;49.728;9.228;2023-11-21T14:39:33;0.60;;;0.60;;
2896;SDS011;1458;49.728;9.228;2023-11-21T14:42:06;0.50;;;0.50;;
2896;SDS011;1458;49.728;9.228;2023-11-21T14:44:33;0.50;;;0.50;;
2896;SDS011;1458;49.728;9.228;2023-11-21T14:47:05;0.70;;;0.70;;
2896;SDS011;1458;49.728;9.228;2023-11-21T14:49:40;0.50;;;0.50;;
2896;SDS011;1458;49.728;9.228;2023-11-21T14:52:17;0.63;;;0.63;;
2896;SDS011;1458;49.728;9.228;2023-11-21T14:54:59;0.50;;;0.50;;
2896;SDS011;1458;49.728;9.228;2023-11-21T14:57:43;0.60;;;0.60;;
2896;SDS011;1458;49.728;9.228;2023-11-21T15:00:15;0.50;;;0.50;;
2896;SDS011;1458;49.728;9.228;2023-11-21T15:03:03;0.50;;;0.50;;
2896;SDS011;1458;49.728;9.228;2023-11-21T15:05:32;0.40;;;0.40;;
2896;SDS011;1458;49.728;9.228;2023-11-21T15:08:00;0.70;;;0.70;;
2896;SDS011;1458;49.728;9.228;2023-11-21T15:10:45;0.50;;;0.50;;
2896;SDS011;1458;49.728;9.228;2023-11-21T15:13:13;0.50;;;0.50;;
2896;SDS011;1458;49.728;9.228;2023-11-21T15:15:41;0.53;;;0.53;;
2896;SDS011;1458;49.728;9.228;2023-11-21T15:18:08;0.40;;;0.40;;
2896;SDS011;1458;49.728;9.228;2023-11-21T15:20:37;0.40;;;0.40;;
2896;SDS011;1458;49.728;9.228;2023-11-21T15:23:06;0.63;;;0.63;;
2896;SDS011;1458;49.728;9.228;2023-11-21T15:25:34;0.50;;;0.50;;
2896;SDS011;1458;49.728;9.228;2023-11-21T15:28:03;0.40;;;0.40;;
2896;SDS011;1458;49.728;9.228;2023-11-21T15:30:31;0.40;;;0.40;;